createdAt,value
2023-05-05T00:01:54.487Z,2.40
2023-05-05T00:04:24.330Z,2.20
2023-05-05T00:06:52.231Z,2.20
2023-05-05T00:09:20.074Z,2.30
2023-05-05T00:11:47.922Z,2.00
2023-05-05T00:14:15.800Z,1.80
2023-05-05T00:16:43.794Z,1.80
2023-05-05T00:19:11.666Z,1.90
2023-05-05T00:21:40.934Z,2.20
2023-05-05T00:24:10.187Z,2.03
2023-05-05T00:26:38.020Z,1.90
2023-05-05T00:29:05.862Z,1.83
2023-05-05T00:31:34.257Z,1.77
2023-05-05T00:34:02.180Z,1.77
2023-05-05T00:36:30.588Z,2.43
2023-05-05T00:38:59.872Z,1.90
2023-05-05T00:41:27.764Z,2.00
2023-05-05T00:43:55.618Z,2.23
2023-05-05T00:46:25.197Z,1.80
2023-05-05T00:48:53.149Z,2.00
2023-05-05T00:51:21.593Z,2.10
2023-05-05T00:53:49.635Z,2.03
2023-05-05T00:56:19.513Z,2.07
2023-05-05T00:58:47.419Z,1.80
2023-05-05T01:01:15.575Z,1.80
2023-05-05T01:03:43.842Z,2.27
2023-05-05T01:06:17.401Z,2.60
2023-05-05T01:08:52.399Z,2.60
2023-05-05T01:11:27.390Z,2.40
2023-05-05T01:13:59.835Z,2.07
2023-05-05T01:16:31.991Z,2.13
2023-05-05T01:19:02.116Z,2.27
2023-05-05T01:21:31.914Z,2.20
2023-05-05T01:24:12.154Z,2.27
2023-05-05T01:26:51.322Z,2.00
2023-05-05T01:29:32.642Z,2.50
2023-05-05T01:32:02.738Z,2.87
2023-05-05T01:34:35.435Z,2.40
2023-05-05T01:37:06.586Z,2.60
2023-05-05T01:39:34.963Z,2.43
2023-05-05T01:42:05.869Z,2.57
2023-05-05T01:44:34.151Z,2.60
2023-05-05T01:47:03.380Z,2.60
2023-05-05T01:49:31.298Z,2.73
2023-05-05T01:51:59.187Z,3.20
2023-05-05T01:54:27.172Z,2.57
2023-05-05T01:56:55.575Z,2.53
2023-05-05T01:59:23.445Z,2.80
2023-05-05T02:01:51.309Z,2.80
2023-05-05T02:04:22.779Z,2.80
2023-05-05T02:06:52.973Z,2.60
2023-05-05T02:09:20.852Z,2.67
2023-05-05T02:11:48.734Z,2.80
2023-05-05T02:14:16.598Z,2.83
2023-05-05T02:16:44.451Z,2.80
2023-05-05T02:19:12.325Z,3.57
2023-05-05T02:21:41.830Z,2.87
2023-05-05T02:24:09.794Z,3.23
2023-05-05T02:26:40.061Z,3.20
2023-05-05T02:29:08.988Z,3.23
2023-05-05T02:31:39.639Z,3.00
2023-05-05T02:34:07.528Z,3.43
2023-05-05T02:36:36.689Z,3.00
2023-05-05T02:39:12.640Z,3.23
2023-05-05T02:41:40.803Z,2.87
2023-05-05T02:44:08.704Z,3.33
2023-05-05T02:46:38.693Z,3.13
2023-05-05T02:49:06.614Z,3.20
2023-05-05T02:51:34.545Z,3.53
2023-05-05T02:54:02.642Z,3.40
2023-05-05T02:56:38.042Z,3.43
2023-05-05T02:59:11.042Z,3.03
2023-05-05T03:01:41.793Z,3.30
2023-05-05T03:04:11.869Z,3.67
2023-05-05T03:06:42.004Z,3.30
2023-05-05T03:09:11.097Z,3.03
2023-05-05T03:11:42.024Z,3.60
2023-05-05T03:14:13.171Z,4.00
2023-05-05T03:16:42.390Z,3.20
2023-05-05T03:19:11.776Z,3.30
2023-05-05T03:21:39.757Z,3.57
2023-05-05T03:24:14.810Z,3.50
2023-05-05T03:26:44.155Z,3.23
2023-05-05T03:29:12.025Z,3.43
2023-05-05T03:31:39.980Z,3.47
2023-05-05T03:34:07.965Z,3.70
2023-05-05T03:36:35.866Z,3.33
2023-05-05T03:39:03.805Z,3.30
2023-05-05T03:41:31.642Z,3.47
2023-05-05T03:44:00.904Z,3.47
2023-05-05T03:46:28.839Z,3.37
2023-05-05T03:48:57.195Z,4.00
2023-05-05T03:51:25.322Z,3.53
2023-05-05T03:53:53.238Z,3.90
2023-05-05T03:56:21.166Z,3.90
2023-05-05T03:58:49.030Z,3.90
2023-05-05T04:01:18.364Z,3.70
2023-05-05T04:03:46.349Z,3.37
2023-05-05T04:06:14.250Z,3.20
2023-05-05T04:08:42.167Z,3.47
2023-05-05T04:11:10.031Z,3.23
2023-05-05T04:13:37.876Z,3.67
2023-05-05T04:16:06.121Z,3.03
2023-05-05T04:18:35.865Z,3.10
2023-05-05T04:21:03.726Z,3.80
2023-05-05T04:23:31.639Z,4.00
2023-05-05T04:25:59.495Z,3.37
2023-05-05T04:28:27.391Z,3.50
2023-05-05T04:30:55.365Z,3.73
2023-05-05T04:33:23.290Z,3.70
2023-05-05T04:35:52.569Z,4.10
2023-05-05T04:38:21.083Z,3.83
2023-05-05T04:40:49.060Z,3.87
2023-05-05T04:43:16.921Z,3.57
2023-05-05T04:45:53.510Z,3.40
2023-05-05T04:48:21.810Z,3.63
2023-05-05T04:50:49.707Z,3.43
2023-05-05T04:53:19.000Z,3.53
2023-05-05T04:55:46.846Z,3.87
2023-05-05T04:58:14.795Z,3.40
2023-05-05T05:00:42.683Z,3.33
2023-05-05T05:03:10.733Z,3.73
2023-05-05T05:05:38.670Z,3.80
2023-05-05T05:08:07.311Z,3.73
2023-05-05T05:10:36.565Z,3.57
2023-05-05T05:13:04.459Z,3.40
2023-05-05T05:15:32.427Z,3.63
2023-05-05T05:18:00.372Z,3.40
2023-05-05T05:20:28.306Z,3.70
2023-05-05T05:22:57.410Z,3.60
2023-05-05T05:25:25.259Z,3.27
2023-05-05T05:28:06.074Z,3.87
2023-05-05T05:30:37.192Z,3.40
2023-05-05T05:33:05.259Z,3.53
2023-05-05T05:35:33.143Z,3.33
2023-05-05T05:38:01.000Z,3.83
2023-05-05T05:40:28.865Z,3.93
2023-05-05T05:42:58.199Z,3.60
2023-05-05T05:45:26.141Z,3.80
2023-05-05T05:47:54.092Z,3.70
2023-05-05T05:50:21.995Z,3.80
2023-05-05T05:52:49.889Z,3.77
2023-05-05T05:55:17.937Z,3.80
2023-05-05T05:57:45.824Z,3.77
2023-05-05T06:00:16.905Z,3.80
2023-05-05T06:02:44.912Z,4.10
2023-05-05T06:05:13.135Z,3.87
2023-05-05T06:07:40.984Z,4.20
2023-05-05T06:10:25.917Z,3.70
2023-05-05T06:12:55.045Z,3.40
2023-05-05T06:15:25.582Z,4.20
2023-05-05T06:17:53.664Z,4.43
2023-05-05T06:20:21.627Z,4.43
2023-05-05T06:22:49.526Z,3.83
2023-05-05T06:25:17.729Z,3.87
2023-05-05T06:27:46.056Z,4.27
2023-05-05T06:30:15.741Z,3.80
2023-05-05T06:32:45.070Z,3.70
2023-05-05T06:35:13.068Z,4.17
2023-05-05T06:37:40.964Z,4.73
2023-05-05T06:40:10.556Z,4.07
2023-05-05T06:42:38.710Z,3.93
2023-05-05T06:45:07.635Z,4.00
2023-05-05T06:47:36.006Z,4.37
2023-05-05T06:50:06.141Z,4.20
2023-05-05T06:52:34.290Z,4.17
2023-05-05T06:55:03.735Z,4.30
2023-05-05T06:57:33.796Z,4.17
2023-05-05T07:00:01.967Z,4.40
2023-05-05T07:02:29.885Z,4.53
2023-05-05T07:04:57.946Z,4.37
2023-05-05T07:07:27.312Z,4.53
2023-05-05T07:09:55.543Z,4.17
2023-05-05T07:12:23.643Z,4.13
2023-05-05T07:14:51.637Z,4.10
2023-05-05T07:17:19.518Z,3.83
2023-05-05T07:19:48.343Z,3.77
2023-05-05T07:22:16.205Z,4.13
2023-05-05T07:24:46.142Z,3.87
2023-05-05T07:27:14.017Z,4.17
2023-05-05T07:29:41.921Z,3.60
2023-05-05T07:32:09.882Z,3.83
2023-05-05T07:34:38.298Z,3.70
2023-05-05T07:37:06.381Z,3.70
2023-05-05T07:39:34.419Z,3.37
2023-05-05T07:42:03.853Z,3.40
2023-05-05T07:44:31.878Z,3.13
2023-05-05T07:46:59.883Z,3.63
2023-05-05T07:49:27.948Z,3.77
2023-05-05T07:51:56.098Z,3.13
2023-05-05T07:54:23.961Z,3.40
2023-05-05T07:56:51.814Z,3.30
2023-05-05T07:59:21.693Z,2.97
2023-05-05T08:01:49.567Z,3.13
2023-05-05T08:04:17.516Z,3.37
2023-05-05T08:06:45.426Z,3.40
2023-05-05T08:09:13.857Z,3.60
2023-05-05T08:11:41.971Z,3.83
2023-05-05T08:14:09.888Z,3.00
2023-05-05T08:16:39.134Z,3.10
2023-05-05T08:19:17.693Z,3.20
2023-05-05T08:21:49.364Z,2.73
2023-05-05T08:24:17.256Z,3.37
2023-05-05T08:26:45.090Z,3.50
2023-05-05T08:29:12.973Z,2.60
2023-05-05T08:31:42.260Z,3.00
2023-05-05T08:34:10.188Z,3.07
2023-05-05T08:36:38.096Z,2.77
2023-05-05T08:39:05.977Z,2.57
2023-05-05T08:41:34.423Z,2.60
2023-05-05T08:44:02.920Z,3.13
2023-05-05T08:46:31.455Z,2.90
2023-05-05T08:49:01.025Z,2.70
2023-05-05T08:51:31.761Z,2.70
2023-05-05T08:54:04.583Z,2.60
2023-05-05T08:56:33.992Z,2.47
2023-05-05T08:59:02.239Z,2.73
2023-05-05T09:01:30.148Z,2.53
2023-05-05T09:04:00.192Z,2.50
2023-05-05T09:06:28.980Z,2.93
2023-05-05T09:08:58.273Z,3.03
2023-05-05T09:11:28.122Z,2.60
2023-05-05T09:13:56.343Z,2.50
2023-05-05T09:16:24.281Z,2.60
2023-05-05T09:18:52.204Z,2.33
2023-05-05T09:21:22.080Z,2.30
2023-05-05T09:24:08.666Z,2.40
2023-05-05T09:26:37.641Z,2.20
2023-05-05T09:29:05.767Z,1.50
2023-05-05T09:31:34.104Z,1.50
2023-05-05T09:34:03.621Z,2.00
2023-05-05T09:36:47.611Z,2.30
2023-05-05T09:39:15.624Z,2.40
2023-05-05T09:41:44.388Z,1.80
2023-05-05T09:44:12.470Z,1.80
2023-05-05T09:46:40.495Z,2.80
2023-05-05T09:49:16.148Z,1.93
2023-05-05T09:51:45.581Z,1.93
2023-05-05T09:54:23.596Z,1.80
2023-05-05T09:56:52.368Z,2.47
2023-05-05T09:59:20.616Z,1.63
2023-05-05T10:01:49.104Z,2.13
2023-05-05T10:04:26.883Z,2.20
2023-05-05T10:06:56.235Z,2.47
2023-05-05T10:09:24.168Z,2.30
2023-05-05T10:11:52.080Z,2.20
2023-05-05T10:14:20.045Z,2.30
2023-05-05T10:16:50.625Z,2.30
2023-05-05T10:19:19.262Z,2.63
2023-05-05T10:21:51.623Z,2.60
2023-05-05T10:24:27.471Z,2.17
2023-05-05T10:26:55.578Z,2.10
2023-05-05T10:29:28.341Z,2.30
2023-05-05T10:31:56.306Z,2.60
2023-05-05T10:34:26.496Z,2.00
2023-05-05T10:36:55.176Z,2.37
2023-05-05T10:39:25.105Z,2.30
2023-05-05T10:41:53.024Z,2.47
2023-05-05T10:44:21.073Z,2.60
2023-05-05T10:46:48.939Z,2.73
2023-05-05T10:49:20.699Z,2.60
2023-05-05T10:51:53.575Z,3.53
2023-05-05T10:54:24.403Z,2.63
2023-05-05T10:56:52.348Z,2.60
2023-05-05T10:59:47.655Z,3.23
2023-05-05T11:02:26.211Z,3.17
2023-05-05T11:05:08.255Z,3.03
2023-05-05T11:07:36.312Z,2.67
2023-05-05T11:10:06.415Z,3.83
2023-05-05T11:12:37.326Z,3.70
2023-05-05T11:15:37.834Z,3.43
2023-05-05T11:18:07.905Z,4.00
2023-05-05T11:21:09.159Z,3.63
2023-05-05T11:23:37.199Z,2.83
2023-05-05T11:26:06.514Z,3.23
2023-05-05T11:28:34.491Z,2.87
2023-05-05T11:31:26.697Z,2.97
2023-05-05T11:33:54.642Z,3.57
2023-05-05T11:36:22.733Z,2.70
2023-05-05T11:39:09.757Z,3.20
2023-05-05T11:42:10.375Z,2.87
2023-05-05T11:44:38.781Z,2.73
2023-05-05T11:47:30.971Z,3.07
2023-05-05T11:49:58.843Z,2.90
2023-05-05T11:52:30.254Z,3.37
2023-05-05T11:55:02.361Z,3.30
2023-05-05T11:57:31.727Z,3.20
2023-05-05T12:00:01.035Z,3.10
2023-05-05T12:02:29.649Z,2.97
2023-05-05T12:04:58.138Z,3.30
2023-05-05T12:07:27.435Z,3.27
2023-05-05T12:09:55.456Z,3.60
2023-05-05T12:12:26.437Z,3.63
2023-05-05T12:14:55.752Z,3.07
2023-05-05T12:17:24.210Z,3.70
2023-05-05T12:19:52.893Z,3.30
2023-05-05T12:22:24.202Z,2.90
2023-05-05T12:24:56.211Z,2.35
2023-05-05T12:27:24.205Z,2.70
2023-05-05T12:29:52.164Z,2.30
2023-05-05T12:32:22.535Z,2.37
2023-05-05T12:34:54.037Z,2.50
2023-05-05T12:37:21.970Z,2.00
2023-05-05T12:39:50.436Z,2.07
2023-05-05T12:42:18.466Z,2.47
2023-05-05T12:44:46.868Z,2.40
2023-05-05T12:47:14.984Z,2.30
2023-05-05T12:49:48.350Z,2.23
2023-05-05T12:52:16.375Z,1.90
2023-05-05T12:54:54.972Z,2.20
2023-05-05T12:57:23.330Z,2.70
2023-05-05T12:59:51.315Z,2.70
2023-05-05T13:02:19.369Z,2.63
2023-05-05T13:04:54.168Z,2.90
2023-05-05T13:07:22.838Z,2.20
2023-05-05T13:09:51.304Z,2.43
2023-05-05T13:12:19.195Z,2.70
2023-05-05T13:14:47.582Z,2.67
2023-05-05T13:17:15.452Z,2.37
2023-05-05T13:19:46.224Z,2.60
2023-05-05T13:22:15.831Z,1.90
2023-05-05T13:24:51.623Z,2.27
2023-05-05T13:27:20.637Z,1.80
2023-05-05T13:29:48.639Z,1.97
2023-05-05T13:32:16.593Z,1.77
2023-05-05T13:34:44.629Z,1.93
2023-05-05T13:37:12.553Z,2.10
2023-05-05T13:39:41.792Z,2.00
2023-05-05T13:42:09.904Z,1.52
2023-05-05T13:44:37.841Z,1.80
2023-05-05T13:47:05.962Z,1.77
2023-05-05T13:49:33.860Z,2.25
2023-05-05T13:52:02.164Z,1.80
2023-05-05T13:54:30.034Z,1.73
2023-05-05T13:57:00.127Z,2.10
2023-05-05T13:59:28.280Z,1.70
2023-05-05T14:01:56.202Z,1.90
2023-05-05T14:04:24.121Z,1.70
2023-05-05T14:06:53.400Z,1.73
2023-05-05T14:09:21.304Z,1.80
2023-05-05T14:11:49.208Z,1.63
2023-05-05T14:14:19.680Z,1.77
2023-05-05T14:16:50.016Z,1.90
2023-05-05T14:19:18.335Z,2.13
2023-05-05T14:21:46.226Z,1.83
2023-05-05T14:24:14.069Z,2.08
2023-05-05T14:26:41.953Z,2.10
2023-05-05T14:29:09.822Z,2.33
2023-05-05T14:31:39.130Z,1.93
2023-05-05T14:34:07.065Z,1.90
2023-05-05T14:36:34.936Z,2.27
2023-05-05T14:39:03.010Z,2.30
2023-05-05T14:41:30.898Z,2.10
2023-05-05T14:43:59.216Z,2.70
2023-05-05T14:46:27.691Z,3.13
2023-05-05T14:48:56.979Z,3.10
2023-05-05T14:51:24.870Z,3.47
2023-05-05T14:53:52.776Z,3.00
2023-05-05T14:56:21.911Z,3.13
2023-05-05T14:58:49.761Z,3.20
2023-05-05T15:01:17.700Z,3.00
2023-05-05T15:03:46.242Z,3.47
2023-05-05T15:06:15.547Z,3.30
2023-05-05T15:08:43.432Z,3.50
2023-05-05T15:11:11.335Z,3.77
2023-05-05T15:13:41.387Z,3.67
2023-05-05T15:16:09.460Z,3.47
2023-05-05T15:18:37.489Z,3.23
2023-05-05T15:21:05.713Z,3.60
2023-05-05T15:23:37.455Z,4.40
2023-05-05T15:26:05.431Z,3.20
2023-05-05T15:28:33.280Z,2.60
2023-05-05T15:31:02.135Z,2.60
2023-05-05T15:33:30.915Z,2.97
2023-05-05T15:35:58.971Z,2.47
2023-05-05T15:38:29.036Z,2.60
2023-05-05T15:40:58.302Z,2.50
2023-05-05T15:43:26.281Z,6.43
2023-05-05T15:45:55.103Z,3.10
2023-05-05T15:48:22.969Z,2.83
2023-05-05T15:50:50.836Z,2.50
2023-05-05T15:53:18.758Z,2.80
2023-05-05T15:55:46.834Z,3.50
2023-05-05T15:58:16.055Z,2.50
2023-05-05T16:00:43.918Z,2.13
2023-05-05T16:03:11.910Z,2.25
2023-05-05T16:05:40.216Z,1.92
2023-05-05T16:08:09.979Z,1.73
2023-05-05T16:10:38.192Z,2.08
2023-05-05T16:13:06.121Z,1.90
2023-05-05T16:15:35.607Z,1.95
2023-05-05T16:18:03.469Z,1.65
2023-05-05T16:20:31.410Z,2.25
2023-05-05T16:22:59.348Z,1.77
2023-05-05T16:25:27.319Z,1.65
2023-05-05T16:27:56.816Z,1.98
2023-05-05T16:30:24.727Z,1.88
2023-05-05T16:32:54.739Z,2.10
2023-05-05T16:35:23.266Z,1.92
2023-05-05T16:37:51.234Z,2.20
2023-05-05T16:40:19.488Z,2.53
2023-05-05T16:42:47.415Z,2.00
2023-05-05T16:45:15.608Z,4.47
2023-05-05T16:50:13.313Z,2.60
2023-05-05T16:52:41.260Z,2.70
2023-05-05T16:55:10.128Z,2.70
2023-05-05T16:57:38.433Z,2.73
2023-05-05T17:00:09.281Z,2.73
2023-05-05T17:02:37.392Z,2.80
2023-05-05T17:05:06.025Z,2.93
2023-05-05T17:07:35.591Z,2.67
2023-05-05T17:10:03.510Z,3.33
2023-05-05T17:12:31.490Z,3.00
2023-05-05T17:14:59.707Z,3.40
2023-05-05T17:17:27.669Z,2.40
2023-05-05T17:19:56.074Z,3.00
2023-05-05T17:22:24.027Z,3.83
2023-05-05T17:24:53.457Z,3.00
2023-05-05T17:27:21.381Z,2.70
2023-05-05T17:29:49.260Z,2.60
2023-05-05T17:32:17.215Z,3.20
2023-05-05T17:34:45.083Z,3.27
2023-05-05T17:37:13.019Z,3.00
2023-05-05T17:39:41.004Z,3.40
2023-05-05T17:42:10.288Z,3.40
2023-05-05T17:44:38.336Z,3.40
2023-05-05T17:47:07.778Z,3.40
2023-05-05T17:49:35.713Z,3.40
2023-05-05T17:52:03.605Z,3.87
2023-05-05T17:54:31.480Z,3.80
2023-05-05T17:56:59.633Z,3.60
2023-05-05T17:59:28.966Z,3.20
2023-05-05T18:01:56.842Z,3.20
2023-05-05T18:04:25.466Z,4.03
2023-05-05T18:06:55.737Z,3.17
2023-05-05T18:09:23.614Z,3.23
2023-05-05T18:11:53.104Z,3.37
2023-05-05T18:14:21.251Z,3.40
2023-05-05T18:16:52.310Z,3.33
2023-05-05T18:19:22.270Z,3.27
2023-05-05T18:21:50.225Z,3.73
2023-05-05T18:24:20.407Z,3.60
2023-05-05T18:26:49.470Z,3.70
2023-05-05T18:29:17.365Z,2.97
2023-05-05T18:31:46.222Z,3.47
2023-05-05T18:34:16.801Z,3.47
2023-05-05T18:36:44.808Z,3.20
2023-05-05T18:39:12.703Z,3.33
2023-05-05T18:41:41.065Z,3.50
2023-05-05T18:44:08.995Z,3.40
2023-05-05T18:46:36.900Z,3.87
2023-05-05T18:49:04.818Z,3.57
2023-05-05T18:51:34.255Z,3.50
2023-05-05T18:54:02.149Z,3.33
2023-05-05T18:56:30.076Z,3.60
2023-05-05T18:58:57.976Z,4.00
2023-05-05T19:01:25.954Z,3.57
2023-05-05T19:03:53.957Z,3.60
2023-05-05T19:06:21.846Z,3.70
2023-05-05T19:08:51.094Z,3.70
2023-05-05T19:11:19.023Z,3.63
2023-05-05T19:13:47.026Z,3.60
2023-05-05T19:16:14.899Z,3.77
2023-05-05T19:18:42.828Z,3.27
2023-05-05T19:21:10.724Z,3.27
2023-05-05T19:23:38.612Z,3.83
2023-05-05T19:26:08.106Z,3.93
2023-05-05T19:28:36.136Z,3.43
2023-05-05T19:31:04.011Z,3.40
2023-05-05T19:33:31.906Z,3.33
2023-05-05T19:35:59.783Z,3.50
2023-05-05T19:38:27.746Z,3.90
2023-05-05T19:40:55.583Z,3.70
2023-05-05T19:43:24.882Z,3.57
2023-05-05T19:45:52.809Z,3.50
2023-05-05T19:48:20.853Z,3.80
2023-05-05T19:50:48.731Z,2.90
2023-05-05T19:53:16.681Z,3.60
2023-05-05T19:55:44.618Z,3.27
2023-05-05T19:58:12.524Z,4.00
2023-05-05T20:00:41.820Z,3.53
2023-05-05T20:03:10.160Z,3.60
2023-05-05T20:05:38.440Z,3.13
2023-05-05T20:08:06.804Z,4.30
2023-05-05T20:10:34.721Z,4.20
2023-05-05T20:13:02.594Z,4.57
2023-05-05T20:15:31.416Z,4.97
2023-05-05T20:18:01.985Z,5.50
2023-05-05T20:20:29.935Z,5.20
2023-05-05T20:22:57.800Z,5.50
2023-05-05T20:25:25.933Z,5.20
2023-05-05T20:27:53.853Z,5.00
2023-05-05T20:30:21.784Z,5.00
2023-05-05T20:32:49.737Z,5.30
2023-05-05T20:35:19.372Z,4.50
2023-05-05T20:37:47.233Z,5.23
2023-05-05T20:40:15.232Z,4.93
2023-05-05T20:42:43.100Z,5.30
2023-05-05T20:45:11.960Z,4.70
2023-05-05T20:47:40.145Z,5.60
2023-05-05T20:50:09.290Z,5.30
2023-05-05T20:52:38.772Z,5.97
2023-05-05T20:55:07.568Z,4.30
2023-05-05T20:57:35.553Z,4.47
2023-05-05T21:00:04.084Z,5.23
2023-05-05T21:02:33.262Z,4.77
2023-05-05T21:05:03.052Z,5.43
2023-05-05T21:07:31.326Z,5.43
2023-05-05T21:10:00.661Z,4.90
2023-05-05T21:12:29.457Z,4.60
2023-05-05T21:14:58.839Z,4.63
2023-05-05T21:17:26.913Z,5.00
2023-05-05T21:19:54.853Z,4.97
2023-05-05T21:22:22.747Z,5.00
2023-05-05T21:24:51.069Z,4.00
2023-05-05T21:27:20.342Z,4.90
2023-05-05T21:29:51.367Z,4.77
2023-05-05T21:32:19.362Z,4.63
2023-05-05T21:34:47.360Z,5.00
2023-05-05T21:37:15.232Z,4.60
2023-05-05T21:39:43.132Z,4.40
2023-05-05T21:42:10.992Z,4.73
2023-05-05T21:44:40.346Z,5.00
2023-05-05T21:47:08.190Z,4.23
2023-05-05T21:49:36.072Z,5.57
2023-05-05T21:52:03.963Z,5.30
2023-05-05T21:54:31.845Z,5.00
2023-05-05T21:57:00.223Z,4.77
2023-05-05T21:59:28.084Z,4.90
2023-05-05T22:01:57.377Z,4.17
2023-05-05T22:04:25.304Z,4.97
2023-05-05T22:06:53.313Z,4.63
2023-05-05T22:09:21.318Z,4.47
2023-05-05T22:11:49.195Z,4.67
2023-05-05T22:14:17.071Z,4.97
2023-05-05T22:16:45.158Z,4.70
2023-05-05T22:19:14.593Z,4.93
2023-05-05T22:21:42.523Z,5.00
2023-05-05T22:24:10.418Z,4.40
2023-05-05T22:26:39.845Z,4.57
2023-05-05T22:29:07.746Z,4.00
2023-05-05T22:31:35.790Z,4.43
2023-05-05T22:34:03.786Z,4.47
2023-05-05T22:36:33.035Z,4.53
2023-05-05T22:39:01.021Z,4.20
2023-05-05T22:41:29.013Z,4.63
2023-05-05T22:43:57.323Z,3.97
2023-05-05T22:46:25.301Z,4.43
2023-05-05T22:48:54.143Z,4.60
2023-05-05T22:51:22.291Z,4.17
2023-05-05T22:53:51.564Z,4.20
2023-05-05T22:56:19.450Z,4.23
2023-05-05T22:58:47.558Z,4.13
2023-05-05T23:01:15.641Z,4.17
2023-05-05T23:03:43.497Z,3.90
2023-05-05T23:06:11.365Z,4.30
2023-05-05T23:08:39.236Z,4.70
2023-05-05T23:11:08.537Z,4.03
2023-05-05T23:13:36.540Z,4.37
2023-05-05T23:16:04.531Z,4.87
2023-05-05T23:18:32.373Z,4.03
2023-05-05T23:21:00.354Z,4.27
2023-05-05T23:23:28.365Z,4.37
2023-05-05T23:25:56.257Z,4.23
2023-05-05T23:28:25.563Z,3.93
2023-05-05T23:30:53.438Z,4.63
2023-05-05T23:33:21.334Z,3.90
2023-05-05T23:35:49.204Z,4.07
2023-05-05T23:38:17.279Z,4.97
2023-05-05T23:40:45.167Z,5.23
2023-05-05T23:43:13.041Z,4.60
2023-05-05T23:45:42.314Z,4.80
2023-05-05T23:48:10.484Z,4.57
2023-05-05T23:50:38.366Z,5.03
2023-05-05T23:53:06.231Z,4.73
2023-05-05T23:55:34.150Z,5.30
2023-05-05T23:58:02.073Z,4.20
